sensor_id;sensor_type;location;lat;lon;timestamp;P1;durP1;ratioP1;P2;durP2;ratioP2
61523;SDS011;47393;38.758;-9.164;2023-08-24T00:01:47;18.80;;;5.20;;
61523;SDS011;47393;38.758;-9.164;2023-08-24T00:03:48;18.85;;;5.20;;
61523;SDS011;47393;38.758;-9.164;2023-08-24T00:05:49;15.93;;;4.70;;
61523;SDS011;47393;38.758;-9.164;2023-08-24T00:07:50;15.77;;;4.53;;
61523;SDS011;47393;38.758;-9.164;2023-08-24T00:09:54;18.60;;;4.63;;
61523;SDS011;47393;38.758;-9.164;2023-08-24T00:11:55;18.95;;;4.90;;
61523;SDS011;47393;38.758;-9.164;2023-08-24T00:13:56;17.55;;;4.88;;
61523;SDS011;47393;38.758;-9.164;2023-08-24T00:15:57;22.95;;;5.30;;
61523;SDS011;47393;38.758;-9.164;2023-08-24T00:17:59;13.57;;;4.43;;
61523;SDS011;47393;38.758;-9.164;2023-08-24T00:20:01;25.05;;;5.50;;
61523;SDS011;47393;38.758;-9.164;2023-08-24T00:22:07;17.63;;;5.05;;
61523;SDS011;47393;38.758;-9.164;2023-08-24T00:24:08;20.42;;;5.90;;
61523;SDS011;47393;38.758;-9.164;2023-08-24T00:26:09;17.52;;;5.05;;
61523;SDS011;47393;38.758;-9.164;2023-08-24T00:28:11;13.55;;;4.70;;
61523;SDS011;47393;38.758;-9.164;2023-08-24T00:30:13;19.15;;;5.35;;
61523;SDS011;47393;38.758;-9.164;2023-08-24T00:32:14;18.00;;;5.00;;
61523;SDS011;47393;38.758;-9.164;2023-08-24T00:34:15;19.35;;;5.07;;
61523;SDS011;47393;38.758;-9.164;2023-08-24T00:36:16;17.70;;;5.07;;
61523;SDS011;47393;38.758;-9.164;2023-08-24T00:38:18;15.10;;;4.82;;
61523;SDS011;47393;38.758;-9.164;2023-08-24T00:40:19;15.55;;;5.13;;
61523;SDS011;47393;38.758;-9.164;2023-08-24T00:42:21;15.30;;;4.75;;
61523;SDS011;47393;38.758;-9.164;2023-08-24T00:44:23;15.25;;;5.60;;
61523;SDS011;47393;38.758;-9.164;2023-08-24T00:46:23;14.13;;;4.65;;
61523;SDS011;47393;38.758;-9.164;2023-08-24T00:48:27;14.98;;;4.55;;
61523;SDS011;47393;38.758;-9.164;2023-08-24T00:50:29;16.05;;;4.35;;
61523;SDS011;47393;38.758;-9.164;2023-08-24T00:52:32;13.13;;;4.40;;
61523;SDS011;47393;38.758;-9.164;2023-08-24T00:54:33;17.15;;;4.43;;
61523;SDS011;47393;38.758;-9.164;2023-08-24T00:56:34;13.40;;;3.92;;
61523;SDS011;47393;38.758;-9.164;2023-08-24T00:58:37;15.88;;;4.80;;
61523;SDS011;47393;38.758;-9.164;2023-08-24T01:00:38;13.43;;;4.45;;
61523;SDS011;47393;38.758;-9.164;2023-08-24T01:02:39;18.27;;;4.80;;
61523;SDS011;47393;38.758;-9.164;2023-08-24T01:04:41;18.00;;;4.38;;
61523;SDS011;47393;38.758;-9.164;2023-08-24T01:06:43;15.43;;;4.78;;
61523;SDS011;47393;38.758;-9.164;2023-08-24T01:08:43;12.95;;;5.22;;
61523;SDS011;47393;38.758;-9.164;2023-08-24T01:10:55;14.23;;;4.35;;
61523;SDS011;47393;38.758;-9.164;2023-08-24T01:13:02;16.65;;;4.50;;
61523;SDS011;47393;38.758;-9.164;2023-08-24T01:15:18;13.43;;;4.35;;
61523;SDS011;47393;38.758;-9.164;2023-08-24T01:17:21;11.88;;;4.25;;
61523;SDS011;47393;38.758;-9.164;2023-08-24T01:19:29;18.05;;;4.30;;
61523;SDS011;47393;38.758;-9.164;2023-08-24T01:21:37;15.93;;;4.18;;
61523;SDS011;47393;38.758;-9.164;2023-08-24T01:23:54;16.50;;;3.88;;
61523;SDS011;47393;38.758;-9.164;2023-08-24T01:26:17;20.33;;;4.80;;
61523;SDS011;47393;38.758;-9.164;2023-08-24T01:28:19;15.75;;;4.97;;
61523;SDS011;47393;38.758;-9.164;2023-08-24T01:30:21;19.30;;;5.13;;
61523;SDS011;47393;38.758;-9.164;2023-08-24T01:32:23;16.27;;;4.60;;
61523;SDS011;47393;38.758;-9.164;2023-08-24T01:34:24;15.50;;;4.50;;
61523;SDS011;47393;38.758;-9.164;2023-08-24T01:36:25;14.02;;;4.78;;
61523;SDS011;47393;38.758;-9.164;2023-08-24T01:38:26;17.40;;;5.30;;
61523;SDS011;47393;38.758;-9.164;2023-08-24T01:40:32;15.88;;;5.10;;
61523;SDS011;47393;38.758;-9.164;2023-08-24T01:42:43;13.05;;;4.72;;
61523;SDS011;47393;38.758;-9.164;2023-08-24T01:44:48;14.57;;;4.80;;
61523;SDS011;47393;38.758;-9.164;2023-08-24T01:46:54;13.90;;;4.60;;
61523;SDS011;47393;38.758;-9.164;2023-08-24T01:48:59;19.17;;;4.85;;
61523;SDS011;47393;38.758;-9.164;2023-08-24T01:51:00;15.48;;;6.00;;
61523;SDS011;47393;38.758;-9.164;2023-08-24T01:53:02;14.73;;;4.20;;
61523;SDS011;47393;38.758;-9.164;2023-08-24T01:55:05;15.52;;;4.15;;
61523;SDS011;47393;38.758;-9.164;2023-08-24T01:57:06;14.70;;;4.22;;
61523;SDS011;47393;38.758;-9.164;2023-08-24T01:59:08;14.60;;;4.60;;
61523;SDS011;47393;38.758;-9.164;2023-08-24T02:01:08;13.00;;;4.18;;
61523;SDS011;47393;38.758;-9.164;2023-08-24T02:03:13;13.23;;;4.70;;
61523;SDS011;47393;38.758;-9.164;2023-08-24T02:05:14;11.80;;;4.13;;
61523;SDS011;47393;38.758;-9.164;2023-08-24T02:07:14;14.73;;;4.30;;
61523;SDS011;47393;38.758;-9.164;2023-08-24T02:09:15;11.88;;;3.85;;
61523;SDS011;47393;38.758;-9.164;2023-08-24T02:11:16;16.75;;;4.35;;
61523;SDS011;47393;38.758;-9.164;2023-08-24T02:13:18;16.63;;;4.57;;
61523;SDS011;47393;38.758;-9.164;2023-08-24T02:15:18;17.13;;;5.47;;
61523;SDS011;47393;38.758;-9.164;2023-08-24T02:17:19;12.40;;;3.70;;
61523;SDS011;47393;38.758;-9.164;2023-08-24T02:19:20;15.63;;;4.28;;
61523;SDS011;47393;38.758;-9.164;2023-08-24T02:21:20;16.90;;;4.75;;
61523;SDS011;47393;38.758;-9.164;2023-08-24T02:23:21;12.65;;;4.80;;
61523;SDS011;47393;38.758;-9.164;2023-08-24T02:25:22;17.67;;;4.93;;
61523;SDS011;47393;38.758;-9.164;2023-08-24T02:27:23;20.67;;;5.28;;
61523;SDS011;47393;38.758;-9.164;2023-08-24T02:29:25;16.77;;;4.93;;
61523;SDS011;47393;38.758;-9.164;2023-08-24T02:31:26;14.23;;;5.13;;
61523;SDS011;47393;38.758;-9.164;2023-08-24T02:33:26;21.08;;;5.25;;
61523;SDS011;47393;38.758;-9.164;2023-08-24T02:35:27;16.70;;;5.55;;
61523;SDS011;47393;38.758;-9.164;2023-08-24T02:37:28;18.13;;;5.57;;
61523;SDS011;47393;38.758;-9.164;2023-08-24T02:39:31;15.30;;;5.40;;
61523;SDS011;47393;38.758;-9.164;2023-08-24T02:41:32;22.33;;;5.70;;
61523;SDS011;47393;38.758;-9.164;2023-08-24T02:43:34;20.23;;;5.68;;
61523;SDS011;47393;38.758;-9.164;2023-08-24T02:45:35;19.73;;;5.30;;
61523;SDS011;47393;38.758;-9.164;2023-08-24T02:47:36;16.83;;;5.53;;
61523;SDS011;47393;38.758;-9.164;2023-08-24T02:49:37;18.55;;;5.78;;
61523;SDS011;47393;38.758;-9.164;2023-08-24T02:51:37;15.93;;;5.75;;
61523;SDS011;47393;38.758;-9.164;2023-08-24T02:53:40;22.48;;;6.32;;
61523;SDS011;47393;38.758;-9.164;2023-08-24T02:55:41;19.88;;;5.40;;
61523;SDS011;47393;38.758;-9.164;2023-08-24T02:57:42;22.05;;;6.03;;
61523;SDS011;47393;38.758;-9.164;2023-08-24T02:59:42;17.13;;;6.20;;
61523;SDS011;47393;38.758;-9.164;2023-08-24T03:01:44;28.40;;;6.85;;
61523;SDS011;47393;38.758;-9.164;2023-08-24T03:03:45;25.67;;;7.32;;
61523;SDS011;47393;38.758;-9.164;2023-08-24T03:06:07;18.77;;;6.05;;
61523;SDS011;47393;38.758;-9.164;2023-08-24T03:08:08;18.00;;;6.22;;
61523;SDS011;47393;38.758;-9.164;2023-08-24T03:10:09;28.92;;;7.68;;
61523;SDS011;47393;38.758;-9.164;2023-08-24T03:12:11;24.45;;;6.35;;
61523;SDS011;47393;38.758;-9.164;2023-08-24T03:14:13;25.98;;;7.13;;
61523;SDS011;47393;38.758;-9.164;2023-08-24T03:16:14;20.65;;;6.50;;
61523;SDS011;47393;38.758;-9.164;2023-08-24T03:18:18;20.63;;;6.20;;
61523;SDS011;47393;38.758;-9.164;2023-08-24T03:20:19;24.92;;;7.45;;
61523;SDS011;47393;38.758;-9.164;2023-08-24T03:22:21;28.42;;;6.97;;
61523;SDS011;47393;38.758;-9.164;2023-08-24T03:24:22;25.98;;;7.20;;
61523;SDS011;47393;38.758;-9.164;2023-08-24T03:26:23;22.52;;;6.75;;
61523;SDS011;47393;38.758;-9.164;2023-08-24T03:28:24;26.55;;;7.00;;
61523;SDS011;47393;38.758;-9.164;2023-08-24T03:30:25;26.67;;;7.47;;
61523;SDS011;47393;38.758;-9.164;2023-08-24T03:32:26;24.65;;;6.47;;
61523;SDS011;47393;38.758;-9.164;2023-08-24T03:34:27;24.58;;;6.38;;
61523;SDS011;47393;38.758;-9.164;2023-08-24T03:36:28;27.40;;;6.90;;
61523;SDS011;47393;38.758;-9.164;2023-08-24T03:38:28;25.52;;;6.38;;
61523;SDS011;47393;38.758;-9.164;2023-08-24T03:40:29;24.20;;;7.18;;
61523;SDS011;47393;38.758;-9.164;2023-08-24T03:42:31;24.15;;;6.70;;
61523;SDS011;47393;38.758;-9.164;2023-08-24T03:44:32;18.70;;;6.88;;
61523;SDS011;47393;38.758;-9.164;2023-08-24T03:46:34;29.20;;;6.95;;
61523;SDS011;47393;38.758;-9.164;2023-08-24T03:48:35;20.73;;;6.90;;
61523;SDS011;47393;38.758;-9.164;2023-08-24T03:50:37;21.10;;;7.50;;
61523;SDS011;47393;38.758;-9.164;2023-08-24T03:52:40;32.55;;;7.72;;
61523;SDS011;47393;38.758;-9.164;2023-08-24T03:54:43;27.25;;;7.15;;
61523;SDS011;47393;38.758;-9.164;2023-08-24T03:56:45;25.20;;;7.78;;
61523;SDS011;47393;38.758;-9.164;2023-08-24T03:58:47;22.08;;;7.47;;
61523;SDS011;47393;38.758;-9.164;2023-08-24T04:00:51;20.20;;;6.05;;
61523;SDS011;47393;38.758;-9.164;2023-08-24T04:02:55;27.33;;;7.80;;
61523;SDS011;47393;38.758;-9.164;2023-08-24T04:04:59;24.30;;;7.88;;
61523;SDS011;47393;38.758;-9.164;2023-08-24T04:07:00;21.88;;;6.95;;
61523;SDS011;47393;38.758;-9.164;2023-08-24T04:09:05;29.13;;;7.77;;
61523;SDS011;47393;38.758;-9.164;2023-08-24T04:11:06;20.30;;;6.45;;
61523;SDS011;47393;38.758;-9.164;2023-08-24T04:13:07;21.70;;;6.55;;
61523;SDS011;47393;38.758;-9.164;2023-08-24T04:15:08;18.10;;;6.40;;
61523;SDS011;47393;38.758;-9.164;2023-08-24T04:17:10;20.27;;;6.55;;
61523;SDS011;47393;38.758;-9.164;2023-08-24T04:19:13;25.05;;;6.90;;
61523;SDS011;47393;38.758;-9.164;2023-08-24T04:21:16;21.88;;;6.70;;
61523;SDS011;47393;38.758;-9.164;2023-08-24T04:23:24;27.60;;;7.07;;
61523;SDS011;47393;38.758;-9.164;2023-08-24T04:25:29;27.45;;;6.82;;
61523;SDS011;47393;38.758;-9.164;2023-08-24T04:27:31;21.63;;;6.72;;
61523;SDS011;47393;38.758;-9.164;2023-08-24T04:29:33;20.67;;;6.30;;
61523;SDS011;47393;38.758;-9.164;2023-08-24T04:31:35;28.63;;;6.57;;
61523;SDS011;47393;38.758;-9.164;2023-08-24T04:33:38;19.42;;;6.43;;
61523;SDS011;47393;38.758;-9.164;2023-08-24T04:35:39;24.10;;;6.45;;
61523;SDS011;47393;38.758;-9.164;2023-08-24T04:37:45;14.63;;;5.88;;
61523;SDS011;47393;38.758;-9.164;2023-08-24T04:39:47;19.27;;;6.50;;
61523;SDS011;47393;38.758;-9.164;2023-08-24T04:41:48;23.15;;;6.15;;
61523;SDS011;47393;38.758;-9.164;2023-08-24T04:43:52;21.30;;;5.80;;
61523;SDS011;47393;38.758;-9.164;2023-08-24T04:45:54;20.95;;;6.50;;
61523;SDS011;47393;38.758;-9.164;2023-08-24T04:47:59;24.13;;;6.55;;
61523;SDS011;47393;38.758;-9.164;2023-08-24T04:50:04;21.08;;;6.75;;
61523;SDS011;47393;38.758;-9.164;2023-08-24T04:52:05;24.48;;;6.45;;
61523;SDS011;47393;38.758;-9.164;2023-08-24T04:54:07;20.88;;;6.38;;
61523;SDS011;47393;38.758;-9.164;2023-08-24T04:56:12;19.08;;;5.40;;
61523;SDS011;47393;38.758;-9.164;2023-08-24T04:58:15;19.15;;;6.22;;
61523;SDS011;47393;38.758;-9.164;2023-08-24T05:00:17;27.90;;;7.45;;
61523;SDS011;47393;38.758;-9.164;2023-08-24T05:02:19;26.13;;;6.32;;
61523;SDS011;47393;38.758;-9.164;2023-08-24T05:04:20;27.67;;;6.40;;
61523;SDS011;47393;38.758;-9.164;2023-08-24T05:06:21;22.15;;;6.88;;
61523;SDS011;47393;38.758;-9.164;2023-08-24T05:08:21;23.55;;;6.65;;
61523;SDS011;47393;38.758;-9.164;2023-08-24T05:10:23;22.73;;;6.50;;
61523;SDS011;47393;38.758;-9.164;2023-08-24T05:12:25;14.77;;;5.82;;
61523;SDS011;47393;38.758;-9.164;2023-08-24T05:14:25;22.95;;;6.70;;
61523;SDS011;47393;38.758;-9.164;2023-08-24T05:16:26;25.13;;;6.38;;
61523;SDS011;47393;38.758;-9.164;2023-08-24T05:18:28;28.67;;;6.82;;
61523;SDS011;47393;38.758;-9.164;2023-08-24T05:20:32;23.65;;;6.47;;
61523;SDS011;47393;38.758;-9.164;2023-08-24T05:22:33;19.17;;;6.57;;
61523;SDS011;47393;38.758;-9.164;2023-08-24T05:24:34;25.70;;;7.32;;
61523;SDS011;47393;38.758;-9.164;2023-08-24T05:26:35;25.30;;;7.15;;
61523;SDS011;47393;38.758;-9.164;2023-08-24T05:28:40;24.17;;;6.55;;
61523;SDS011;47393;38.758;-9.164;2023-08-24T05:30:41;30.30;;;7.05;;
61523;SDS011;47393;38.758;-9.164;2023-08-24T05:32:43;19.83;;;6.10;;
61523;SDS011;47393;38.758;-9.164;2023-08-24T05:34:45;29.83;;;7.25;;
61523;SDS011;47393;38.758;-9.164;2023-08-24T05:36:47;24.10;;;6.20;;
61523;SDS011;47393;38.758;-9.164;2023-08-24T05:38:50;23.38;;;6.13;;
61523;SDS011;47393;38.758;-9.164;2023-08-24T05:40:56;27.83;;;7.05;;
61523;SDS011;47393;38.758;-9.164;2023-08-24T05:42:57;26.20;;;6.50;;
61523;SDS011;47393;38.758;-9.164;2023-08-24T05:45:00;21.10;;;5.88;;
61523;SDS011;47393;38.758;-9.164;2023-08-24T05:47:03;22.73;;;7.05;;
61523;SDS011;47393;38.758;-9.164;2023-08-24T05:49:09;24.25;;;6.28;;
61523;SDS011;47393;38.758;-9.164;2023-08-24T05:53:15;22.02;;;5.75;;
61523;SDS011;47393;38.758;-9.164;2023-08-24T05:55:20;23.88;;;6.53;;
61523;SDS011;47393;38.758;-9.164;2023-08-24T05:57:26;22.70;;;6.15;;
61523;SDS011;47393;38.758;-9.164;2023-08-24T05:59:34;26.67;;;6.95;;
61523;SDS011;47393;38.758;-9.164;2023-08-24T06:01:39;20.35;;;6.30;;
61523;SDS011;47393;38.758;-9.164;2023-08-24T06:03:42;24.77;;;6.55;;
61523;SDS011;47393;38.758;-9.164;2023-08-24T06:05:44;21.08;;;6.10;;
61523;SDS011;47393;38.758;-9.164;2023-08-24T06:07:46;19.00;;;5.93;;
61523;SDS011;47393;38.758;-9.164;2023-08-24T06:09:47;33.00;;;7.20;;
61523;SDS011;47393;38.758;-9.164;2023-08-24T06:11:48;28.08;;;7.32;;
61523;SDS011;47393;38.758;-9.164;2023-08-24T06:13:49;25.23;;;6.70;;
61523;SDS011;47393;38.758;-9.164;2023-08-24T06:15:54;26.70;;;6.88;;
61523;SDS011;47393;38.758;-9.164;2023-08-24T06:17:55;21.15;;;7.20;;
61523;SDS011;47393;38.758;-9.164;2023-08-24T06:19:56;22.13;;;6.53;;
61523;SDS011;47393;38.758;-9.164;2023-08-24T06:21:56;22.00;;;6.05;;
61523;SDS011;47393;38.758;-9.164;2023-08-24T06:23:57;21.73;;;5.57;;
61523;SDS011;47393;38.758;-9.164;2023-08-24T06:25:59;23.48;;;5.63;;
61523;SDS011;47393;38.758;-9.164;2023-08-24T06:28:04;17.85;;;6.25;;
61523;SDS011;47393;38.758;-9.164;2023-08-24T06:30:05;25.95;;;6.10;;
61523;SDS011;47393;38.758;-9.164;2023-08-24T06:32:12;21.95;;;6.28;;
61523;SDS011;47393;38.758;-9.164;2023-08-24T06:34:22;22.73;;;5.78;;
61523;SDS011;47393;38.758;-9.164;2023-08-24T06:36:36;18.17;;;5.68;;
61523;SDS011;47393;38.758;-9.164;2023-08-24T06:38:51;16.38;;;5.47;;
61523;SDS011;47393;38.758;-9.164;2023-08-24T06:41:26;13.93;;;5.40;;
61523;SDS011;47393;38.758;-9.164;2023-08-24T06:43:33;16.00;;;5.38;;
61523;SDS011;47393;38.758;-9.164;2023-08-24T06:45:35;20.70;;;5.53;;
61523;SDS011;47393;38.758;-9.164;2023-08-24T06:47:39;20.95;;;5.95;;
61523;SDS011;47393;38.758;-9.164;2023-08-24T06:49:46;24.67;;;6.15;;
61523;SDS011;47393;38.758;-9.164;2023-08-24T06:51:47;18.38;;;5.57;;
61523;SDS011;47393;38.758;-9.164;2023-08-24T06:53:49;23.23;;;6.43;;
61523;SDS011;47393;38.758;-9.164;2023-08-24T06:56:00;17.48;;;5.72;;
61523;SDS011;47393;38.758;-9.164;2023-08-24T06:58:03;19.38;;;5.88;;
61523;SDS011;47393;38.758;-9.164;2023-08-24T07:00:08;17.20;;;5.43;;
61523;SDS011;47393;38.758;-9.164;2023-08-24T07:04:17;21.58;;;5.30;;
61523;SDS011;47393;38.758;-9.164;2023-08-24T07:06:22;23.55;;;6.13;;
61523;SDS011;47393;38.758;-9.164;2023-08-24T07:08:32;20.60;;;4.90;;
61523;SDS011;47393;38.758;-9.164;2023-08-24T07:10:44;21.85;;;5.78;;
61523;SDS011;47393;38.758;-9.164;2023-08-24T07:12:49;21.05;;;5.15;;
61523;SDS011;47393;38.758;-9.164;2023-08-24T07:14:57;15.23;;;5.25;;
61523;SDS011;47393;38.758;-9.164;2023-08-24T07:17:05;19.80;;;5.72;;
61523;SDS011;47393;38.758;-9.164;2023-08-24T07:19:14;19.27;;;5.25;;
61523;SDS011;47393;38.758;-9.164;2023-08-24T07:21:36;23.00;;;4.95;;
61523;SDS011;47393;38.758;-9.164;2023-08-24T07:23:38;17.90;;;5.25;;
61523;SDS011;47393;38.758;-9.164;2023-08-24T07:25:50;20.55;;;5.47;;
61523;SDS011;47393;38.758;-9.164;2023-08-24T07:27:56;25.98;;;5.75;;
61523;SDS011;47393;38.758;-9.164;2023-08-24T07:30:05;24.00;;;6.28;;
61523;SDS011;47393;38.758;-9.164;2023-08-24T07:32:11;22.63;;;5.85;;
61523;SDS011;47393;38.758;-9.164;2023-08-24T07:36:18;19.13;;;5.82;;
61523;SDS011;47393;38.758;-9.164;2023-08-24T07:38:27;31.23;;;5.95;;
61523;SDS011;47393;38.758;-9.164;2023-08-24T07:40:30;21.63;;;6.10;;
61523;SDS011;47393;38.758;-9.164;2023-08-24T07:42:43;26.60;;;5.68;;
61523;SDS011;47393;38.758;-9.164;2023-08-24T07:44:49;33.20;;;6.25;;
61523;SDS011;47393;38.758;-9.164;2023-08-24T07:46:52;21.25;;;6.00;;
61523;SDS011;47393;38.758;-9.164;2023-08-24T07:48:57;17.65;;;5.28;;
61523;SDS011;47393;38.758;-9.164;2023-08-24T07:51:02;24.95;;;5.25;;
61523;SDS011;47393;38.758;-9.164;2023-08-24T07:53:04;16.10;;;4.63;;
61523;SDS011;47393;38.758;-9.164;2023-08-24T07:55:06;16.10;;;4.90;;
61523;SDS011;47393;38.758;-9.164;2023-08-24T07:57:10;19.05;;;5.25;;
61523;SDS011;47393;38.758;-9.164;2023-08-24T07:59:14;22.02;;;6.10;;
61523;SDS011;47393;38.758;-9.164;2023-08-24T08:01:18;21.13;;;4.68;;
61523;SDS011;47393;38.758;-9.164;2023-08-24T08:03:25;24.58;;;4.72;;
61523;SDS011;47393;38.758;-9.164;2023-08-24T08:05:36;27.23;;;4.88;;
61523;SDS011;47393;38.758;-9.164;2023-08-24T08:07:40;8.63;;;3.83;;
61523;SDS011;47393;38.758;-9.164;2023-08-24T08:09:42;18.42;;;4.28;;
61523;SDS011;47393;38.758;-9.164;2023-08-24T08:11:45;23.63;;;4.65;;
61523;SDS011;47393;38.758;-9.164;2023-08-24T08:13:59;16.20;;;5.10;;
61523;SDS011;47393;38.758;-9.164;2023-08-24T08:16:03;12.80;;;4.88;;
61523;SDS011;47393;38.758;-9.164;2023-08-24T08:18:06;14.27;;;4.72;;
61523;SDS011;47393;38.758;-9.164;2023-08-24T08:20:08;21.50;;;4.50;;
61523;SDS011;47393;38.758;-9.164;2023-08-24T08:22:09;29.17;;;6.18;;
61523;SDS011;47393;38.758;-9.164;2023-08-24T08:24:10;14.60;;;4.65;;
61523;SDS011;47393;38.758;-9.164;2023-08-24T08:26:11;22.50;;;4.78;;
61523;SDS011;47393;38.758;-9.164;2023-08-24T08:28:18;27.55;;;5.82;;
61523;SDS011;47393;38.758;-9.164;2023-08-24T08:30:23;17.95;;;4.60;;
61523;SDS011;47393;38.758;-9.164;2023-08-24T08:32:32;14.05;;;4.47;;
61523;SDS011;47393;38.758;-9.164;2023-08-24T08:34:35;17.03;;;4.60;;
61523;SDS011;47393;38.758;-9.164;2023-08-24T08:36:47;16.42;;;4.38;;
61523;SDS011;47393;38.758;-9.164;2023-08-24T08:39:13;17.73;;;4.68;;
61523;SDS011;47393;38.758;-9.164;2023-08-24T08:41:17;14.77;;;5.20;;
61523;SDS011;47393;38.758;-9.164;2023-08-24T08:43:24;29.45;;;5.57;;
61523;SDS011;47393;38.758;-9.164;2023-08-24T08:45:29;16.92;;;5.25;;
61523;SDS011;47393;38.758;-9.164;2023-08-24T08:47:39;24.00;;;5.15;;
61523;SDS011;47393;38.758;-9.164;2023-08-24T08:49:45;26.90;;;4.60;;
61523;SDS011;47393;38.758;-9.164;2023-08-24T08:51:51;18.45;;;3.70;;
61523;SDS011;47393;38.758;-9.164;2023-08-24T08:54:02;13.77;;;3.88;;
61523;SDS011;47393;38.758;-9.164;2023-08-24T08:56:07;16.23;;;3.92;;
61523;SDS011;47393;38.758;-9.164;2023-08-24T08:58:12;13.20;;;4.03;;
61523;SDS011;47393;38.758;-9.164;2023-08-24T09:00:18;28.98;;;4.50;;
61523;SDS011;47393;38.758;-9.164;2023-08-24T09:02:20;31.55;;;4.40;;
61523;SDS011;47393;38.758;-9.164;2023-08-24T09:04:23;23.98;;;4.80;;
61523;SDS011;47393;38.758;-9.164;2023-08-24T09:06:31;18.80;;;4.00;;
61523;SDS011;47393;38.758;-9.164;2023-08-24T09:08:36;10.50;;;4.38;;
61523;SDS011;47393;38.758;-9.164;2023-08-24T09:10:43;19.98;;;4.75;;
61523;SDS011;47393;38.758;-9.164;2023-08-24T09:12:48;13.25;;;3.90;;
61523;SDS011;47393;38.758;-9.164;2023-08-24T09:14:50;10.38;;;4.50;;
61523;SDS011;47393;38.758;-9.164;2023-08-24T09:17:18;16.42;;;4.35;;
61523;SDS011;47393;38.758;-9.164;2023-08-24T09:23:19;13.82;;;4.03;;
61523;SDS011;47393;38.758;-9.164;2023-08-24T09:29:14;25.75;;;4.70;;
61523;SDS011;47393;38.758;-9.164;2023-08-24T09:31:42;23.98;;;4.47;;
61523;SDS011;47393;38.758;-9.164;2023-08-24T09:34:03;21.38;;;3.95;;
61523;SDS011;47393;38.758;-9.164;2023-08-24T09:36:26;9.68;;;3.20;;
61523;SDS011;47393;38.758;-9.164;2023-08-24T09:38:45;22.33;;;4.05;;
61523;SDS011;47393;38.758;-9.164;2023-08-24T09:40:51;15.10;;;3.95;;
61523;SDS011;47393;38.758;-9.164;2023-08-24T09:42:54;17.25;;;4.35;;
61523;SDS011;47393;38.758;-9.164;2023-08-24T09:44:54;20.52;;;3.95;;
61523;SDS011;47393;38.758;-9.164;2023-08-24T09:46:56;17.35;;;4.43;;
61523;SDS011;47393;38.758;-9.164;2023-08-24T09:49:01;16.58;;;4.38;;
61523;SDS011;47393;38.758;-9.164;2023-08-24T09:51:04;28.45;;;5.00;;
61523;SDS011;47393;38.758;-9.164;2023-08-24T09:53:06;12.55;;;4.28;;
61523;SDS011;47393;38.758;-9.164;2023-08-24T09:55:13;10.40;;;3.58;;
61523;SDS011;47393;38.758;-9.164;2023-08-24T09:57:17;14.65;;;3.50;;
61523;SDS011;47393;38.758;-9.164;2023-08-24T09:59:19;19.08;;;4.18;;
61523;SDS011;47393;38.758;-9.164;2023-08-24T10:01:29;22.35;;;4.47;;
61523;SDS011;47393;38.758;-9.164;2023-08-24T10:03:32;20.67;;;4.43;;
61523;SDS011;47393;38.758;-9.164;2023-08-24T10:05:34;14.30;;;4.57;;
61523;SDS011;47393;38.758;-9.164;2023-08-24T10:07:36;21.38;;;4.28;;
61523;SDS011;47393;38.758;-9.164;2023-08-24T10:09:52;19.52;;;4.43;;
61523;SDS011;47393;38.758;-9.164;2023-08-24T10:11:56;21.10;;;4.43;;
61523;SDS011;47393;38.758;-9.164;2023-08-24T10:14:07;13.18;;;3.90;;
61523;SDS011;47393;38.758;-9.164;2023-08-24T10:16:12;19.83;;;4.03;;
61523;SDS011;47393;38.758;-9.164;2023-08-24T10:18:18;24.15;;;3.55;;
61523;SDS011;47393;38.758;-9.164;2023-08-24T10:20:22;21.05;;;4.35;;
61523;SDS011;47393;38.758;-9.164;2023-08-24T10:22:27;18.83;;;4.80;;
61523;SDS011;47393;38.758;-9.164;2023-08-24T10:24:30;10.30;;;3.95;;
61523;SDS011;47393;38.758;-9.164;2023-08-24T10:26:36;16.52;;;4.40;;
61523;SDS011;47393;38.758;-9.164;2023-08-24T10:28:40;12.73;;;3.85;;
61523;SDS011;47393;38.758;-9.164;2023-08-24T10:30:44;28.48;;;5.20;;
61523;SDS011;47393;38.758;-9.164;2023-08-24T10:32:46;27.77;;;4.35;;
61523;SDS011;47393;38.758;-9.164;2023-08-24T10:34:48;15.77;;;4.23;;
61523;SDS011;47393;38.758;-9.164;2023-08-24T10:36:53;18.02;;;4.43;;
61523;SDS011;47393;38.758;-9.164;2023-08-24T10:39:05;15.38;;;3.60;;
61523;SDS011;47393;38.758;-9.164;2023-08-24T10:41:07;11.38;;;3.83;;
61523;SDS011;47393;38.758;-9.164;2023-08-24T10:43:10;18.55;;;3.38;;
61523;SDS011;47393;38.758;-9.164;2023-08-24T10:45:13;16.63;;;4.30;;
61523;SDS011;47393;38.758;-9.164;2023-08-24T10:47:20;16.88;;;5.00;;
61523;SDS011;47393;38.758;-9.164;2023-08-24T10:49:32;18.88;;;4.38;;
61523;SDS011;47393;38.758;-9.164;2023-08-24T10:51:42;13.32;;;4.03;;
61523;SDS011;47393;38.758;-9.164;2023-08-24T10:53:55;11.68;;;3.28;;
61523;SDS011;47393;38.758;-9.164;2023-08-24T10:56:15;17.13;;;3.60;;
61523;SDS011;47393;38.758;-9.164;2023-08-24T10:58:17;17.83;;;4.18;;
61523;SDS011;47393;38.758;-9.164;2023-08-24T11:00:21;26.63;;;4.20;;
61523;SDS011;47393;38.758;-9.164;2023-08-24T11:02:29;15.40;;;3.25;;
61523;SDS011;47393;38.758;-9.164;2023-08-24T11:04:40;10.50;;;3.38;;
61523;SDS011;47393;38.758;-9.164;2023-08-24T11:06:54;16.63;;;3.70;;
61523;SDS011;47393;38.758;-9.164;2023-08-24T11:09:06;14.23;;;3.92;;
61523;SDS011;47393;38.758;-9.164;2023-08-24T11:11:21;16.90;;;3.70;;
61523;SDS011;47393;38.758;-9.164;2023-08-24T11:15:39;10.73;;;4.10;;
61523;SDS011;47393;38.758;-9.164;2023-08-24T11:17:40;14.60;;;3.78;;
61523;SDS011;47393;38.758;-9.164;2023-08-24T11:19:46;25.52;;;3.75;;
61523;SDS011;47393;38.758;-9.164;2023-08-24T11:21:48;28.10;;;4.25;;
61523;SDS011;47393;38.758;-9.164;2023-08-24T11:23:48;21.35;;;3.80;;
61523;SDS011;47393;38.758;-9.164;2023-08-24T11:25:52;19.92;;;4.05;;
61523;SDS011;47393;38.758;-9.164;2023-08-24T11:27:57;7.50;;;3.20;;
61523;SDS011;47393;38.758;-9.164;2023-08-24T11:29:59;17.50;;;4.07;;
61523;SDS011;47393;38.758;-9.164;2023-08-24T11:32:00;10.07;;;3.15;;
61523;SDS011;47393;38.758;-9.164;2023-08-24T11:34:01;12.20;;;3.17;;
61523;SDS011;47393;38.758;-9.164;2023-08-24T11:36:03;28.50;;;3.13;;
61523;SDS011;47393;38.758;-9.164;2023-08-24T11:38:05;20.70;;;3.53;;
61523;SDS011;47393;38.758;-9.164;2023-08-24T11:40:06;10.32;;;3.30;;
61523;SDS011;47393;38.758;-9.164;2023-08-24T11:42:16;11.27;;;2.78;;
61523;SDS011;47393;38.758;-9.164;2023-08-24T11:44:17;11.43;;;3.38;;
61523;SDS011;47393;38.758;-9.164;2023-08-24T11:46:19;16.20;;;3.13;;
61523;SDS011;47393;38.758;-9.164;2023-08-24T11:48:23;11.40;;;2.97;;
61523;SDS011;47393;38.758;-9.164;2023-08-24T11:50:24;14.93;;;3.20;;
61523;SDS011;47393;38.758;-9.164;2023-08-24T11:52:26;17.05;;;3.40;;
61523;SDS011;47393;38.758;-9.164;2023-08-24T11:54:28;12.18;;;3.40;;
61523;SDS011;47393;38.758;-9.164;2023-08-24T11:56:31;17.43;;;3.23;;
61523;SDS011;47393;38.758;-9.164;2023-08-24T11:58:32;11.40;;;3.60;;
61523;SDS011;47393;38.758;-9.164;2023-08-24T12:00:33;16.88;;;3.78;;
61523;SDS011;47393;38.758;-9.164;2023-08-24T12:02:34;11.25;;;3.58;;
61523;SDS011;47393;38.758;-9.164;2023-08-24T12:04:39;11.25;;;2.60;;
61523;SDS011;47393;38.758;-9.164;2023-08-24T12:06:42;26.75;;;3.95;;
61523;SDS011;47393;38.758;-9.164;2023-08-24T12:08:46;17.80;;;3.80;;
61523;SDS011;47393;38.758;-9.164;2023-08-24T12:10:48;14.15;;;3.47;;
61523;SDS011;47393;38.758;-9.164;2023-08-24T12:12:49;17.23;;;3.45;;
61523;SDS011;47393;38.758;-9.164;2023-08-24T12:14:53;13.27;;;3.55;;
61523;SDS011;47393;38.758;-9.164;2023-08-24T12:17:06;10.65;;;3.38;;
61523;SDS011;47393;38.758;-9.164;2023-08-24T12:19:07;15.55;;;4.15;;
61523;SDS011;47393;38.758;-9.164;2023-08-24T12:21:08;14.65;;;3.38;;
61523;SDS011;47393;38.758;-9.164;2023-08-24T12:23:10;12.32;;;3.22;;